Ava, Ohio
Current Conditions -  °F | °C
As of 4:53 AM on Wednesday 22 Oct 2014 (Local Time) from KZZV Reporting Station
Overcast Overcast  
Wind Chill: 42°   Ceiling: 1100
Heat Index: 46°   Visibility: 10mi
Dew Point: 43°   Wind: 7mph
Humidity: 89%   Direction: 330°NNW
Pressure: 30.12"   Gusts: NA
Location:  39.83°N, 81.57°W
Report Text: KZZV 220853Z AUTO 33006KT 10SM OVC011 08/06 A3012 RMK AO2 SLP202 60000 T00780061 53008
Loading
Personal Weather Stations






























Interactive Weather Map New forecast layout! Learn more

10-Day Weather Forecast

Advertisements
Track Severe Weather on mobile